Time;durP1;ratioP1;P1;durP2;ratioP2;P2;SDS_P1;SDS_P2;PMS_P1;PMS_P2;Temp;Humidity;BMP_temperature;BMP_pressure;BME280_temperature;BME280_humidity;BME280_pressure;Samples;Min_cycle;Max_cycle;Signal;HPM_P1;HPM_P2
2022/11/18 00:02:18;;;;;;;3.50;3.20;;;12.20;99.90;;;;;;5043719;28;20264;-72
2022/11/18 00:04:44;;;;;;;3.60;3.37;;;12.10;99.90;;;;;;5021304;28;20184;-71
2022/11/18 00:07:10;;;;;;;4.07;3.13;;;12.10;99.90;;;;;;5025470;28;20256;-71
2022/11/18 00:09:35;;;;;;;3.80;3.00;;;12.10;99.90;;;;;;5043044;28;20190;-75
2022/11/18 00:14:45;;;;;;;4.47;3.40;;;12.00;99.90;;;;;;5039123;28;20228;-72
2022/11/18 00:17:11;;;;;;;3.40;3.20;;;12.00;99.90;;;;;;5042637;28;20464;-71
2022/11/18 00:19:39;;;;;;;3.60;3.30;;;11.90;99.90;;;;;;5028155;28;20731;-75
2022/11/18 00:22:09;;;;;;;3.70;3.40;;;11.90;99.90;;;;;;5037698;28;20193;-71
2022/11/18 00:24:35;;;;;;;3.67;3.47;;;11.90;99.90;;;;;;5042707;28;20435;-74
2022/11/18 00:27:01;;;;;;;4.60;3.67;;;12.00;99.90;;;;;;5043869;28;20519;-71
2022/11/18 00:29:27;;;;;;;3.40;3.20;;;12.00;99.90;;;;;;5040499;28;20611;-72
2022/11/18 00:31:53;;;;;;;3.97;3.67;;;12.00;99.90;;;;;;5043078;28;20194;-72
2022/11/18 00:34:19;;;;;;;4.13;3.67;;;12.00;99.90;;;;;;5051520;28;20424;-71
2022/11/18 00:36:46;;;;;;;4.40;4.00;;;12.00;99.90;;;;;;5052982;28;20421;-71
2022/11/18 00:39:15;;;;;;;3.60;3.40;;;12.00;99.90;;;;;;5028063;28;20421;-72
2022/11/18 00:44:25;;;;;;;4.13;3.67;;;12.00;99.90;;;;;;5038435;28;20466;-71
2022/11/18 00:46:51;;;;;;;3.70;3.17;;;12.00;99.90;;;;;;5036681;28;20432;-71
2022/11/18 00:49:17;;;;;;;9.63;3.50;;;12.00;99.90;;;;;;5053353;28;20257;-71
2022/11/18 00:51:42;;;;;;;3.40;3.20;;;12.10;99.90;;;;;;5047252;28;20425;-72
2022/11/18 00:54:08;;;;;;;7.17;6.30;;;12.10;99.90;;;;;;5027791;28;20181;-74
2022/11/18 00:56:34;;;;;;;5.40;4.80;;;12.10;99.90;;;;;;5042858;28;20181;-72
2022/11/18 00:59:00;;;;;;;3.63;3.30;;;12.10;99.90;;;;;;5021377;28;20198;-72
2022/11/18 01:01:25;;;;;;;3.83;3.53;;;12.10;99.90;;;;;;5042733;28;20213;-71
2022/11/18 01:03:51;;;;;;;4.23;3.40;;;12.10;99.90;;;;;;5032296;28;20186;-71
2022/11/18 01:06:17;;;;;;;3.70;3.40;;;12.10;99.90;;;;;;5053020;28;20210;-71
2022/11/18 01:08:43;;;;;;;3.80;3.40;;;12.10;99.90;;;;;;5052200;28;20239;-71
2022/11/18 01:13:53;;;;;;;5.33;3.27;;;12.20;99.90;;;;;;5048020;28;20165;-70
2022/11/18 01:16:21;;;;;;;3.97;3.57;;;12.20;99.90;;;;;;5052013;28;20457;-72
2022/11/18 01:18:47;;;;;;;3.03;2.80;;;12.20;99.90;;;;;;5050227;28;20826;-72
2022/11/18 01:21:14;;;;;;;3.13;2.83;;;12.30;99.90;;;;;;5035201;28;20831;-71
2022/11/18 01:23:39;;;;;;;9.00;3.27;;;12.30;99.90;;;;;;5043233;28;20953;-76
2022/11/18 01:26:08;;;;;;;5.77;3.03;;;12.30;99.90;;;;;;5025394;28;20519;-72
2022/11/18 01:28:34;;;;;;;4.13;3.20;;;12.20;99.90;;;;;;5041256;28;20183;-72
2022/11/18 01:31:15;;;;;;;3.60;3.30;;;12.30;99.90;;;;;;5041845;28;20421;-72
2022/11/18 01:33:41;;;;;;;3.70;3.40;;;12.20;99.90;;;;;;5042214;28;20404;-77
2022/11/18 01:36:17;;;;;;;5.50;3.30;;;12.20;99.90;;;;;;5041002;28;20463;-73
2022/11/18 01:38:43;;;;;;;5.93;2.67;;;12.20;99.90;;;;;;5042649;28;20448;-72
2022/11/18 01:41:09;;;;;;;4.13;3.67;;;12.20;99.90;;;;;;5046589;28;20485;-72
2022/11/18 01:43:55;;;;;;;4.90;4.50;;;12.20;99.90;;;;;;5041412;28;20444;-72
2022/11/18 01:46:23;;;;;;;3.77;3.47;;;12.30;99.90;;;;;;5025140;28;20428;-72
2022/11/18 01:49:10;;;;;;;4.00;3.33;;;12.20;99.90;;;;;;5041583;28;20405;-72
2022/11/18 01:51:45;;;;;;;3.43;3.23;;;12.10;99.90;;;;;;5041947;28;20483;-71
2022/11/18 01:54:34;;;;;;;3.10;2.80;;;12.20;99.90;;;;;;5043160;28;20936;-72
2022/11/18 01:57:06;;;;;;;3.07;2.87;;;12.20;99.90;;;;;;5023935;28;20437;-72
2022/11/18 01:59:35;;;;;;;5.27;3.10;;;12.20;99.90;;;;;;5039320;28;20402;-72
2022/11/18 02:02:06;;;;;;;5.93;3.17;;;12.20;99.90;;;;;;5021811;28;20740;-72
2022/11/18 02:04:33;;;;;;;2.50;2.40;;;12.30;99.90;;;;;;5022291;28;20408;-72
2022/11/18 02:06:59;;;;;;;3.50;3.20;;;12.30;99.90;;;;;;5047510;28;20476;-72
2022/11/18 02:09:24;;;;;;;3.10;2.90;;;12.40;99.90;;;;;;5052448;28;20425;-71
2022/11/18 02:11:52;;;;;;;3.17;2.70;;;12.40;99.90;;;;;;5051055;28;20257;-72
2022/11/18 02:14:21;;;;;;;7.97;3.03;;;12.40;99.90;;;;;;5052197;28;20170;-71
2022/11/18 02:17:29;;;;;;;3.30;2.90;;;12.50;99.90;;;;;;5051236;28;20413;-72
2022/11/18 02:20:10;;;;;;;3.83;3.63;;;12.50;99.90;;;;;;5039879;28;20437;-72
2022/11/18 02:23:01;;;;;;;3.43;3.00;;;12.50;99.90;;;;;;5052347;28;20482;-71
2022/11/18 02:25:36;;;;;;;3.33;2.90;;;12.50;99.90;;;;;;5057785;28;20440;-71
2022/11/18 02:28:33;;;;;;;4.77;3.30;;;12.50;99.90;;;;;;5056509;28;21101;-72
2022/11/18 02:31:26;;;;;;;3.00;2.80;;;12.50;99.90;;;;;;5057909;28;20391;-72
2022/11/18 02:34:09;;;;;;;4.97;3.17;;;12.50;99.90;;;;;;5037974;28;20853;-72
2022/11/18 02:36:37;;;;;;;3.23;2.70;;;12.50;99.90;;;;;;5022725;28;20466;-71
2022/11/18 02:39:16;;;;;;;4.20;3.00;;;12.50;99.90;;;;;;5052932;28;20522;-71
2022/11/18 02:41:44;;;;;;;3.90;3.00;;;12.50;99.90;;;;;;5058396;28;20820;-76
2022/11/18 02:44:13;;;;;;;3.50;3.20;;;12.50;99.90;;;;;;5058090;28;20954;-71
2022/11/18 02:46:43;;;;;;;4.20;3.20;;;12.50;99.90;;;;;;5039944;28;20820;-72
2022/11/18 02:49:16;;;;;;;2.87;2.57;;;12.70;99.90;;;;;;5058078;28;20408;-72
2022/11/18 02:51:44;;;;;;;6.47;3.00;;;12.60;99.90;;;;;;5057524;28;20490;-76
2022/11/18 02:54:12;;;;;;;3.97;2.83;;;12.50;99.90;;;;;;5057987;28;20474;-72
2022/11/18 02:56:38;;;;;;;3.90;3.23;;;12.50;99.90;;;;;;5057313;28;20748;-72
2022/11/18 02:59:04;;;;;;;5.33;2.90;;;12.40;99.90;;;;;;5057554;28;20517;-72
2022/11/18 03:01:33;;;;;;;4.17;3.30;;;12.40;99.90;;;;;;5058443;28;20814;-71
2022/11/18 03:03:59;;;;;;;3.43;3.10;;;12.40;99.90;;;;;;5057598;28;20440;-72
2022/11/18 03:07:10;;;;;;;3.40;3.10;;;12.40;99.90;;;;;;5057994;28;20410;-72
2022/11/18 03:09:42;;;;;;;3.77;3.10;;;12.40;99.90;;;;;;5008433;28;20420;-71
2022/11/18 03:12:44;;;;;;;4.30;3.00;;;12.50;99.90;;;;;;5057479;28;20416;-71
2022/11/18 03:15:28;;;;;;;4.77;3.40;;;12.40;99.90;;;;;;5057898;28;20398;-71
2022/11/18 03:18:05;;;;;;;6.23;3.27;;;12.30;99.90;;;;;;5038723;28;20459;-72
2022/11/18 03:20:36;;;;;;;3.10;2.80;;;12.30;99.90;;;;;;5058392;28;20401;-71
2022/11/18 03:23:16;;;;;;;5.17;3.57;;;12.20;99.90;;;;;;5057419;28;20418;-71
2022/11/18 03:25:52;;;;;;;3.43;3.00;;;12.20;99.90;;;;;;5058298;28;20856;-72
2022/11/18 03:28:34;;;;;;;3.77;3.30;;;12.20;99.90;;;;;;5024173;28;20468;-71
2022/11/18 03:31:03;;;;;;;3.37;3.17;;;12.20;99.90;;;;;;5037410;28;20409;-72
2022/11/18 03:33:39;;;;;;;5.83;3.27;;;12.20;99.90;;;;;;5038099;28;20764;-72
2022/11/18 03:36:08;;;;;;;3.30;2.93;;;12.30;99.90;;;;;;5019955;28;20423;-72
2022/11/18 03:38:38;;;;;;;4.87;2.97;;;12.30;99.90;;;;;;5036906;28;20469;-72
2022/11/18 03:41:09;;;;;;;4.70;3.40;;;12.30;99.90;;;;;;5054110;28;20426;-72
2022/11/18 03:43:43;;;;;;;3.47;3.17;;;12.30;99.90;;;;;;5035311;28;20903;-71
2022/11/18 03:46:23;;;;;;;3.33;3.13;;;12.30;99.90;;;;;;5034079;28;20596;-71
2022/11/18 03:48:55;;;;;;;4.03;3.40;;;12.40;99.90;;;;;;5024790;28;20466;-76
2022/11/18 03:51:53;;;;;;;6.03;5.47;;;12.40;99.90;;;;;;5054607;28;20460;-72
2022/11/18 03:54:29;;;;;;;4.10;3.80;;;12.40;99.90;;;;;;5038634;28;20422;-72
2022/11/18 03:57:04;;;;;;;3.70;3.50;;;12.40;99.90;;;;;;5052705;28;20420;-72
2022/11/18 04:00:01;;;;;;;4.00;3.60;;;12.40;99.90;;;;;;5037134;28;20447;-72
2022/11/18 04:02:28;;;;;;;4.30;3.80;;;12.60;99.90;;;;;;5032667;28;20420;-72
2022/11/18 04:04:56;;;;;;;5.37;3.80;;;12.50;99.90;;;;;;5036585;28;20428;-72
2022/11/18 04:07:28;;;;;;;4.70;3.83;;;12.50;99.90;;;;;;5043041;28;20895;-71
2022/11/18 04:10:05;;;;;;;4.10;3.87;;;12.50;99.90;;;;;;5053676;28;20405;-72
2022/11/18 04:12:44;;;;;;;4.47;4.07;;;12.50;99.90;;;;;;5054449;28;20752;-72
2022/11/18 04:15:11;;;;;;;4.67;4.27;;;12.50;99.90;;;;;;5053573;28;20394;-71
2022/11/18 04:17:41;;;;;;;7.70;4.20;;;12.50;99.90;;;;;;5052734;28;20479;-72
2022/11/18 04:20:15;;;;;;;4.90;4.43;;;12.50;99.90;;;;;;5035549;28;20521;-72
2022/11/18 04:22:41;;;;;;;5.73;5.13;;;12.50;99.90;;;;;;5054147;28;20397;-71
2022/11/18 04:25:07;;;;;;;4.77;4.37;;;12.60;99.90;;;;;;5053252;28;21281;-71
2022/11/18 04:27:32;;;;;;;5.83;4.70;;;12.50;99.90;;;;;;5054010;28;20228;-71
2022/11/18 04:29:58;;;;;;;5.00;4.17;;;12.50;99.90;;;;;;5052137;28;20229;-72
2022/11/18 04:32:24;;;;;;;4.80;4.50;;;12.50;99.90;;;;;;5034996;28;20188;-74
2022/11/18 04:34:49;;;;;;;5.50;5.00;;;12.50;99.90;;;;;;5053492;28;20194;-76
2022/11/18 04:37:15;;;;;;;5.10;4.70;;;12.40;99.90;;;;;;5053429;28;20288;-72
2022/11/18 04:39:41;;;;;;;5.23;4.93;;;12.40;99.90;;;;;;5053622;28;20628;-71
2022/11/18 04:42:06;;;;;;;5.03;4.60;;;12.40;99.90;;;;;;5053081;28;20177;-72
2022/11/18 04:44:33;;;;;;;7.33;4.90;;;12.40;99.90;;;;;;5053780;28;20261;-71
2022/11/18 04:47:01;;;;;;;4.63;3.80;;;12.50;99.90;;;;;;5052380;28;20177;-72
2022/11/18 04:49:28;;;;;;;5.67;4.00;;;12.50;99.90;;;;;;5053571;28;20471;-71
2022/11/18 04:51:54;;;;;;;5.87;4.20;;;12.50;99.90;;;;;;5052969;28;20458;-74
2022/11/18 04:54:20;;;;;;;4.90;4.20;;;12.50;99.90;;;;;;5052781;28;20424;-71
2022/11/18 04:56:46;;;;;;;4.90;4.40;;;12.50;99.90;;;;;;5052350;28;20422;-71
2022/11/18 04:59:14;;;;;;;4.83;4.53;;;12.60;99.90;;;;;;5052466;28;20529;-71
2022/11/18 05:01:40;;;;;;;5.10;4.23;;;12.60;99.90;;;;;;5050684;28;20464;-71
2022/11/18 05:04:06;;;;;;;4.00;3.70;;;12.50;99.90;;;;;;5033757;28;20832;-70
2022/11/18 05:06:33;;;;;;;6.30;4.60;;;12.60;99.90;;;;;;5053065;28;20217;-70
2022/11/18 05:09:00;;;;;;;5.00;4.00;;;12.60;99.90;;;;;;5052428;28;20436;-72
2022/11/18 05:14:11;;;;;;;5.70;5.20;;;12.60;99.90;;;;;;5051511;28;20544;-71
2022/11/18 05:16:37;;;;;;;5.37;4.90;;;12.70;99.90;;;;;;5053118;28;20414;-71
2022/11/18 05:19:04;;;;;;;4.37;4.00;;;12.70;99.90;;;;;;5050996;28;20469;-72
2022/11/18 05:21:30;;;;;;;4.80;4.47;;;12.70;99.90;;;;;;5052860;28;20227;-71
2022/11/18 05:23:58;;;;;;;5.60;5.20;;;12.70;99.90;;;;;;5052052;28;20417;-72
2022/11/18 05:26:23;;;;;;;5.00;4.37;;;12.70;99.90;;;;;;5047718;28;20431;-71
2022/11/18 05:28:49;;;;;;;4.40;4.00;;;12.80;99.90;;;;;;5046085;28;20439;-74
2022/11/18 05:31:15;;;;;;;6.10;4.20;;;12.80;99.90;;;;;;5044262;28;20186;-71
2022/11/18 05:33:42;;;;;;;6.87;6.13;;;12.70;99.90;;;;;;5041607;28;20186;-73
2022/11/18 05:36:13;;;;;;;5.50;4.27;;;12.80;99.90;;;;;;5047877;28;20445;-72
2022/11/18 05:38:39;;;;;;;4.23;3.90;;;12.60;99.90;;;;;;4981030;28;20992;-71
2022/11/18 05:41:05;;;;;;;5.00;4.60;;;12.70;99.90;;;;;;5051565;28;20421;-72
2022/11/18 05:43:31;;;;;;;4.20;3.80;;;12.70;99.90;;;;;;5046146;28;20225;-72
2022/11/18 05:45:57;;;;;;;5.23;3.50;;;12.80;99.90;;;;;;5023972;28;20429;-74
2022/11/18 05:48:23;;;;;;;5.63;5.13;;;12.80;99.90;;;;;;5045891;28;20446;-72
2022/11/18 05:50:51;;;;;;;3.90;3.60;;;12.80;99.90;;;;;;5048543;28;20440;-71
2022/11/18 05:53:19;;;;;;;4.60;3.77;;;12.90;99.90;;;;;;5047451;28;20431;-70
2022/11/18 05:56:25;;;;;;;5.60;4.40;;;12.90;99.90;;;;;;5051286;28;20414;-68
2022/11/18 05:58:51;;;;;;;4.00;3.63;;;12.90;99.90;;;;;;5051729;28;21025;-68
2022/11/18 06:01:23;;;;;;;3.97;3.67;;;12.90;99.90;;;;;;5032454;28;20499;-68
2022/11/18 06:03:49;;;;;;;3.60;3.30;;;12.80;99.90;;;;;;5033865;28;20183;-69
2022/11/18 06:06:17;;;;;;;4.17;3.87;;;12.90;99.90;;;;;;5045603;28;20437;-67
2022/11/18 06:08:57;;;;;;;4.70;4.40;;;12.80;99.90;;;;;;5032549;28;20177;-67
2022/11/18 06:11:23;;;;;;;4.60;4.00;;;12.70;99.90;;;;;;5046423;28;20404;-67
2022/11/18 06:14:01;;;;;;;5.43;3.50;;;12.70;99.90;;;;;;5052621;28;20411;-68
2022/11/18 06:16:30;;;;;;;4.10;3.80;;;12.70;99.90;;;;;;5052225;28;20401;-67
2022/11/18 06:18:56;;;;;;;5.63;3.70;;;12.70;99.90;;;;;;5050091;28;20471;-68
2022/11/18 06:21:22;;;;;;;5.20;4.40;;;12.60;99.90;;;;;;5044198;28;20803;-68
2022/11/18 06:23:48;;;;;;;4.27;3.93;;;12.50;99.90;;;;;;5040985;28;20859;-67
2022/11/18 06:26:15;;;;;;;5.67;4.03;;;12.50;99.90;;;;;;5041575;28;20750;-68
2022/11/18 06:28:45;;;;;;;4.20;3.90;;;12.60;99.90;;;;;;5042771;28;20418;-67
2022/11/18 06:31:10;;;;;;;4.40;4.10;;;12.50;99.90;;;;;;5040707;28;20426;-68
2022/11/18 06:33:36;;;;;;;6.83;4.10;;;12.60;99.90;;;;;;5024048;28;20405;-68
2022/11/18 06:36:02;;;;;;;3.70;3.40;;;12.50;99.90;;;;;;5039883;28;20637;-68
2022/11/18 06:38:27;;;;;;;4.50;4.10;;;12.50;99.90;;;;;;5037835;28;20623;-68
2022/11/18 06:40:58;;;;;;;4.23;3.93;;;12.50;99.90;;;;;;5040432;28;20183;-68
2022/11/18 06:43:40;;;;;;;4.00;3.67;;;12.50;99.90;;;;;;5040715;28;20268;-68
2022/11/18 06:48:56;;;;;;;4.20;3.90;;;12.50;99.90;;;;;;5051614;28;20835;-69
2022/11/18 06:51:22;;;;;;;5.33;4.37;;;12.50;99.90;;;;;;5049054;28;20438;-68
2022/11/18 06:53:48;;;;;;;4.23;4.00;;;12.50;99.90;;;;;;5045666;28;20427;-68
2022/11/18 06:56:15;;;;;;;4.10;3.80;;;12.50;99.90;;;;;;5045056;28;20553;-68
2022/11/18 06:58:41;;;;;;;4.77;4.37;;;12.40;99.90;;;;;;5038868;28;20514;-68
2022/11/18 07:01:17;;;;;;;4.37;4.07;;;12.40;99.90;;;;;;5048651;28;20840;-68
2022/11/18 07:03:44;;;;;;;4.20;3.90;;;12.40;99.90;;;;;;5032582;28;20448;-68
2022/11/18 07:06:12;;;;;;;4.50;4.23;;;12.50;99.90;;;;;;5042359;28;20886;-68
2022/11/18 07:08:39;;;;;;;5.10;4.60;;;12.30;99.90;;;;;;5042409;28;20420;-68
2022/11/18 07:11:07;;;;;;;5.53;5.07;;;12.30;99.90;;;;;;5044570;28;20421;-67
2022/11/18 07:13:33;;;;;;;5.10;4.70;;;12.30;99.90;;;;;;5048464;28;20414;-68
2022/11/18 07:16:14;;;;;;;4.80;4.40;;;12.30;99.90;;;;;;5050455;28;20426;-68
2022/11/18 07:18:41;;;;;;;4.80;4.40;;;12.20;99.90;;;;;;5046956;28;20482;-67
2022/11/18 07:21:20;;;;;;;5.03;4.73;;;12.20;99.90;;;;;;5045295;28;20418;-68
2022/11/18 07:23:47;;;;;;;4.77;4.40;;;12.20;99.90;;;;;;5055641;28;20455;-68
2022/11/18 07:26:13;;;;;;;4.77;4.47;;;12.20;99.90;;;;;;5049871;28;20447;-68
2022/11/18 07:28:39;;;;;;;4.70;4.30;;;12.20;99.90;;;;;;5037025;28;20445;-68
2022/11/18 07:31:07;;;;;;;8.43;4.40;;;12.10;99.90;;;;;;5047847;28;20443;-68
2022/11/18 07:33:33;;;;;;;6.97;4.30;;;12.10;99.90;;;;;;5051076;28;21008;-67
2022/11/18 07:36:01;;;;;;;4.37;4.07;;;12.10;99.90;;;;;;5025674;28;20798;-70
2022/11/18 07:38:27;;;;;;;4.87;4.47;;;12.10;99.90;;;;;;5047563;28;20471;-68
2022/11/18 07:40:53;;;;;;;4.97;4.50;;;12.10;99.90;;;;;;5054479;28;20776;-67
2022/11/18 07:43:19;;;;;;;5.00;4.60;;;12.10;99.90;;;;;;5054007;28;20420;-67
2022/11/18 07:45:45;;;;;;;5.70;5.10;;;12.10;99.90;;;;;;4996312;28;20190;-67
2022/11/18 07:48:10;;;;;;;5.20;4.80;;;12.10;99.90;;;;;;5011659;28;20998;-67
2022/11/18 07:50:41;;;;;;;9.33;6.17;;;12.00;99.90;;;;;;5012651;28;20278;-67
2022/11/18 07:53:07;;;;;;;8.17;6.20;;;12.10;99.90;;;;;;5012138;28;20189;-67
2022/11/18 07:55:32;;;;;;;6.80;6.13;;;12.00;99.90;;;;;;5012849;28;20426;-67
2022/11/18 07:57:58;;;;;;;6.70;5.80;;;12.00;99.90;;;;;;5012349;28;20307;-68
2022/11/18 08:00:24;;;;;;;7.60;6.00;;;12.00;99.90;;;;;;5012003;28;20190;-68
2022/11/18 08:02:50;;;;;;;6.47;5.90;;;11.90;99.90;;;;;;5012741;28;20186;-67
2022/11/18 08:05:16;;;;;;;6.10;5.50;;;11.90;99.90;;;;;;5011270;28;20258;-67
2022/11/18 08:07:41;;;;;;;7.40;5.43;;;11.90;99.90;;;;;;5012305;28;20478;-67
2022/11/18 08:10:07;;;;;;;7.67;6.63;;;11.90;99.90;;;;;;5011841;28;20209;-67
2022/11/18 08:12:33;;;;;;;6.80;5.80;;;11.90;99.90;;;;;;5012712;28;20175;-67
2022/11/18 08:14:59;;;;;;;6.30;5.70;;;11.90;99.90;;;;;;5012616;28;20418;-67
2022/11/18 08:17:24;;;;;;;6.57;6.07;;;11.90;99.90;;;;;;5044695;28;20221;-67
2022/11/18 08:19:50;;;;;;;6.63;6.13;;;11.90;99.90;;;;;;5053342;28;20174;-67
2022/11/18 08:22:19;;;;;;;6.50;5.83;;;11.90;99.90;;;;;;5050276;28;20209;-67
2022/11/18 08:24:46;;;;;;;5.90;5.43;;;11.90;99.90;;;;;;5036615;28;20299;-67
2022/11/18 08:27:12;;;;;;;7.10;6.40;;;11.90;99.90;;;;;;5047339;28;20778;-67
2022/11/18 08:29:38;;;;;;;11.90;10.90;;;11.90;99.90;;;;;;5040387;28;20424;-67
2022/11/18 08:32:05;;;;;;;16.00;14.60;;;11.90;99.90;;;;;;5033893;28;20409;-70
2022/11/18 08:34:31;;;;;;;11.43;10.33;;;12.10;99.90;;;;;;4953779;29;20181;-67
2022/11/18 08:37:02;;;;;;;11.80;10.30;;;12.00;99.90;;;;;;4953674;29;20442;-67
2022/11/18 08:39:27;;;;;;;10.10;9.20;;;12.00;99.90;;;;;;4953867;29;20541;-67
2022/11/18 08:41:53;;;;;;;12.07;9.63;;;12.10;99.90;;;;;;4953888;29;20421;-67
2022/11/18 08:44:19;;;;;;;10.00;9.10;;;12.10;99.90;;;;;;4953212;29;20199;-67
2022/11/18 08:46:45;;;;;;;10.63;9.53;;;12.10;99.90;;;;;;4953739;29;20691;-67
2022/11/18 08:49:11;;;;;;;10.00;9.00;;;12.20;99.90;;;;;;4953044;28;20644;-67
2022/11/18 08:51:36;;;;;;;8.93;7.83;;;12.20;99.90;;;;;;4967676;28;20440;-67
2022/11/18 08:54:05;;;;;;;12.27;9.27;;;12.30;99.90;;;;;;4969049;28;20544;-67
2022/11/18 08:56:31;;;;;;;10.53;9.53;;;12.20;99.90;;;;;;4953586;29;20185;-67
2022/11/18 08:58:56;;;;;;;12.03;10.20;;;12.20;99.90;;;;;;4953505;29;20555;-67
2022/11/18 09:01:22;;;;;;;10.47;9.50;;;12.20;99.90;;;;;;4952812;29;20253;-67
2022/11/18 09:03:48;;;;;;;11.13;10.00;;;12.20;99.90;;;;;;4953364;29;20224;-67
2022/11/18 09:06:20;;;;;;;9.90;8.90;;;12.20;99.90;;;;;;5017318;28;20460;-67
2022/11/18 09:08:46;;;;;;;10.90;9.83;;;12.30;99.90;;;;;;5033859;28;20840;-67
2022/11/18 09:11:18;;;;;;;10.27;9.37;;;12.30;99.90;;;;;;5032866;28;20440;-67
2022/11/18 09:13:44;;;;;;;9.70;8.80;;;12.30;99.90;;;;;;5033407;28;20488;-67
2022/11/18 09:16:10;;;;;;;9.50;8.60;;;12.30;99.90;;;;;;5048124;28;20464;-67
2022/11/18 09:18:35;;;;;;;11.20;9.00;;;12.40;99.90;;;;;;5053345;28;20499;-67
2022/11/18 09:21:04;;;;;;;10.40;8.90;;;12.40;99.90;;;;;;5053365;28;20217;-67
2022/11/18 09:23:31;;;;;;;10.70;8.87;;;12.50;99.90;;;;;;5053640;28;20643;-67
2022/11/18 09:26:19;;;;;;;9.17;8.27;;;12.50;99.90;;;;;;5053289;28;20411;-67
2022/11/18 09:28:46;;;;;;;10.83;8.67;;;12.60;99.90;;;;;;5053071;28;20414;-67
2022/11/18 09:31:13;;;;;;;10.23;9.20;;;12.60;99.90;;;;;;5052365;28;20409;-67
2022/11/18 09:33:39;;;;;;;9.00;8.20;;;12.60;99.90;;;;;;5052265;28;20416;-67
2022/11/18 09:36:15;;;;;;;9.53;8.67;;;12.60;99.90;;;;;;5052935;28;20401;-70
2022/11/18 09:38:41;;;;;;;9.70;8.77;;;12.60;99.90;;;;;;5053259;28;20793;-67
2022/11/18 09:41:30;;;;;;;9.73;8.70;;;12.70;99.90;;;;;;5052551;28;20489;-68
2022/11/18 09:44:25;;;;;;;9.30;8.40;;;12.70;99.90;;;;;;5052925;28;20159;-67
2022/11/18 09:47:17;;;;;;;9.90;9.00;;;12.70;99.90;;;;;;5034175;28;20938;-67
2022/11/18 09:49:44;;;;;;;12.00;9.67;;;12.70;99.90;;;;;;5038386;28;20583;-67
2022/11/18 09:52:27;;;;;;;9.50;7.87;;;12.70;99.90;;;;;;5050524;28;20456;-67
2022/11/18 09:54:53;;;;;;;9.23;8.33;;;12.80;99.90;;;;;;5052733;28;20495;-67
2022/11/18 09:57:24;;;;;;;12.60;9.00;;;12.70;99.90;;;;;;5052054;28;20422;-67
2022/11/18 09:59:50;;;;;;;12.50;9.83;;;12.70;99.90;;;;;;5052418;28;20434;-67
2022/11/18 10:02:46;;;;;;;10.10;9.10;;;12.80;99.90;;;;;;5051914;28;20455;-67
2022/11/18 10:05:26;;;;;;;12.67;9.70;;;12.80;99.90;;;;;;5051505;28;20279;-69
2022/11/18 10:08:17;;;;;;;10.27;9.37;;;12.80;99.90;;;;;;5052491;28;20474;-67
2022/11/18 10:10:57;;;;;;;10.13;9.10;;;12.80;99.90;;;;;;5034758;28;20416;-67
2022/11/18 10:13:37;;;;;;;10.40;9.40;;;12.80;99.90;;;;;;5052033;28;20410;-67
2022/11/18 10:16:29;;;;;;;11.70;10.50;;;12.80;99.90;;;;;;5051551;28;20415;-67
2022/11/18 10:19:26;;;;;;;10.37;9.30;;;12.80;99.90;;;;;;5050655;28;20473;-67
2022/11/18 10:22:00;;;;;;;10.23;8.07;;;12.90;99.90;;;;;;5051215;28;20425;-67
2022/11/18 10:24:36;;;;;;;11.17;9.60;;;12.90;99.90;;;;;;5047784;28;20507;-68
2022/11/18 10:27:12;;;;;;;9.23;8.37;;;12.90;99.90;;;;;;5045674;28;20422;-67
2022/11/18 10:29:38;;;;;;;9.27;8.37;;;12.90;99.90;;;;;;5052261;28;20767;-67
2022/11/18 10:32:11;;;;;;;8.83;7.93;;;13.00;99.90;;;;;;5049553;28;20427;-67
2022/11/18 10:34:49;;;;;;;8.83;8.00;;;13.00;99.90;;;;;;5038452;28;20927;-67
2022/11/18 10:37:23;;;;;;;8.07;7.47;;;13.10;99.90;;;;;;5041066;28;20432;-67
2022/11/18 10:39:54;;;;;;;9.40;8.23;;;13.10;99.90;;;;;;5037558;28;20418;-67
2022/11/18 10:42:33;;;;;;;9.27;8.40;;;13.20;99.90;;;;;;5036193;28;20417;-67
2022/11/18 10:45:20;;;;;;;8.93;8.03;;;13.20;99.90;;;;;;5052052;28;20430;-67
2022/11/18 10:48:09;;;;;;;8.33;7.53;;;13.30;99.90;;;;;;5046917;28;20990;-67
2022/11/18 10:50:37;;;;;;;7.60;6.90;;;13.30;99.90;;;;;;5054378;28;21066;-67
2022/11/18 10:53:05;;;;;;;9.20;7.23;;;13.30;99.90;;;;;;5045928;28;20430;-67
2022/11/18 10:55:32;;;;;;;8.60;7.90;;;13.30;99.90;;;;;;5050183;28;21009;-68
2022/11/18 10:58:08;;;;;;;9.03;8.13;;;13.30;99.90;;;;;;5049045;28;20820;-67
2022/11/18 11:00:46;;;;;;;8.70;8.00;;;13.30;99.90;;;;;;5049049;28;20417;-67
2022/11/18 11:03:25;;;;;;;12.47;8.60;;;13.30;99.90;;;;;;5044734;28;20427;-71
2022/11/18 11:06:18;;;;;;;9.47;8.57;;;13.30;99.90;;;;;;5044104;28;20934;-67
2022/11/18 11:09:03;;;;;;;10.93;8.20;;;13.40;99.90;;;;;;5055691;28;20846;-67
2022/11/18 11:11:31;;;;;;;9.07;8.33;;;13.40;99.90;;;;;;5054720;28;20433;-67
2022/11/18 11:14:06;;;;;;;8.90;8.27;;;13.40;99.90;;;;;;5055383;28;20419;-67
2022/11/18 11:16:40;;;;;;;8.90;8.10;;;13.60;99.90;;;;;;5053143;28;20450;-67
2022/11/18 11:19:10;;;;;;;8.70;7.90;;;13.70;99.90;;;;;;5055425;28;20945;-67
2022/11/18 11:21:36;;;;;;;8.20;7.57;;;13.80;99.90;;;;;;5054576;28;20408;-67
2022/11/18 11:24:09;;;;;;;15.67;7.90;;;14.00;99.90;;;;;;5051842;28;20424;-68
2022/11/18 11:27:08;;;;;;;11.33;7.40;;;14.10;99.90;;;;;;5051688;28;20186;-67
2022/11/18 11:29:37;;;;;;;7.03;6.47;;;14.20;99.90;;;;;;5039191;28;20776;-68
2022/11/18 11:32:16;;;;;;;7.90;6.90;;;14.30;99.90;;;;;;5036233;28;20410;-67
2022/11/18 11:35:00;;;;;;;7.97;6.97;;;14.30;99.90;;;;;;5045710;28;20440;-67
2022/11/18 11:37:26;;;;;;;6.97;6.27;;;14.40;99.90;;;;;;5048442;28;20513;-67
2022/11/18 11:40:29;;;;;;;7.30;6.60;;;14.40;99.90;;;;;;5055172;28;20499;-67
2022/11/18 11:43:03;;;;;;;6.63;6.13;;;14.40;99.90;;;;;;5035836;28;20186;-66
2022/11/18 11:45:45;;;;;;;6.53;5.70;;;14.50;99.90;;;;;;5034852;28;20432;-66
2022/11/18 11:48:35;;;;;;;6.33;5.73;;;14.60;99.90;;;;;;5035559;28;20870;-66
2022/11/18 11:51:15;;;;;;;5.93;5.53;;;14.70;99.90;;;;;;5035336;28;20736;-66
2022/11/18 11:54:02;;;;;;;6.53;6.00;;;15.00;99.90;;;;;;5047719;28;20463;-67
2022/11/18 11:56:50;;;;;;;6.37;5.30;;;15.10;99.90;;;;;;5051316;28;20430;-67
2022/11/18 11:59:37;;;;;;;6.00;5.60;;;15.20;99.90;;;;;;5033618;28;20504;-67
2022/11/18 12:02:43;;;;;;;7.30;6.30;;;15.20;99.90;;;;;;5053020;28;20420;-67
2022/11/18 12:05:30;;;;;;;6.70;6.10;;;15.20;99.90;;;;;;5029976;28;20492;-67
2022/11/18 12:07:59;;;;;;;7.03;5.60;;;15.10;99.90;;;;;;5034805;28;20462;-67
2022/11/18 12:10:28;;;;;;;7.50;6.23;;;15.20;99.90;;;;;;5048551;28;20447;-67
2022/11/18 12:13:36;;;;;;;6.93;6.23;;;15.10;99.90;;;;;;5001972;28;20515;-67
2022/11/18 12:16:02;;;;;;;6.80;5.77;;;15.10;99.90;;;;;;5034805;28;20430;-66
2022/11/18 12:19:00;;;;;;;7.97;6.00;;;15.20;99.90;;;;;;5042617;28;20536;-67
2022/11/18 12:21:46;;;;;;;6.50;5.90;;;15.20;99.90;;;;;;5052353;28;20168;-67
2022/11/18 12:24:30;;;;;;;6.20;5.70;;;15.20;99.90;;;;;;5041913;28;20452;-67
2022/11/18 12:27:29;;;;;;;9.23;5.67;;;15.20;99.90;;;;;;5048979;28;20461;-67
2022/11/18 12:30:00;;;;;;;6.83;6.07;;;15.10;99.90;;;;;;5054180;28;20506;-66
2022/11/18 12:32:45;;;;;;;5.43;5.00;;;15.00;99.90;;;;;;5034828;28;20476;-67
2022/11/18 12:35:11;;;;;;;6.07;5.57;;;14.90;99.90;;;;;;5034260;28;20726;-67
2022/11/18 12:37:50;;;;;;;7.30;6.40;;;14.80;99.90;;;;;;5049959;28;20484;-67
2022/11/18 12:40:51;;;;;;;6.90;6.20;;;14.80;99.90;;;;;;5044858;28;20180;-70
2022/11/18 12:43:47;;;;;;;6.73;6.13;;;14.60;99.90;;;;;;4968692;28;20474;-67
2022/11/18 12:46:34;;;;;;;7.17;6.20;;;14.60;99.90;;;;;;5040839;28;20508;-69
2022/11/18 12:49:35;;;;;;;6.47;5.73;;;14.50;99.90;;;;;;5045425;28;20464;-67
2022/11/18 12:52:04;;;;;;;6.93;6.23;;;14.50;99.90;;;;;;4975063;28;20780;-67
2022/11/18 12:54:34;;;;;;;7.40;6.00;;;14.60;99.90;;;;;;5025915;28;20509;-66
2022/11/18 12:57:22;;;;;;;6.17;5.57;;;14.60;99.90;;;;;;5051302;28;20438;-67
2022/11/18 12:59:49;;;;;;;6.60;6.20;;;14.80;99.90;;;;;;5053486;28;20417;-67
2022/11/18 13:02:22;;;;;;;7.33;5.60;;;14.80;99.90;;;;;;5052966;28;20520;-67
2022/11/18 13:05:06;;;;;;;6.80;6.10;;;14.90;99.90;;;;;;5052955;28;20492;-66
2022/11/18 13:10:38;;;;;;;7.50;6.37;;;15.10;99.90;;;;;;5040895;28;20432;-66
2022/11/18 13:13:04;;;;;;;8.80;6.60;;;15.00;99.90;;;;;;5033303;28;20400;-67
2022/11/18 13:18:21;;;;;;;7.70;6.87;;;14.90;99.90;;;;;;5010897;28;20469;-67
2022/11/18 13:20:56;;;;;;;6.67;6.17;;;15.00;99.90;;;;;;5030677;28;20843;-66
2022/11/18 13:26:16;;;;;;;5.93;5.50;;;14.90;99.90;;;;;;5041713;28;20508;-67
2022/11/18 13:28:51;;;;;;;6.00;5.20;;;14.90;99.90;;;;;;5046920;28;20499;-67
2022/11/18 13:31:41;;;;;;;6.00;5.40;;;14.90;99.90;;;;;;5052621;28;20483;-67
2022/11/18 13:34:15;;;;;;;7.43;5.10;;;15.00;99.90;;;;;;5053114;28;20854;-66
2022/11/18 13:36:43;;;;;;;7.10;4.93;;;14.80;99.90;;;;;;5033440;28;20432;-66